sensor_id;sensor_type;location;lat;lon;timestamp;P1;durP1;ratioP1;P2;durP2;ratioP2
70532;SDS011;58088;51.186;17.130;2023-05-10T00:00:28;9.10;;;4.10;;
70532;SDS011;58088;51.186;17.130;2023-05-10T00:02:54;7.70;;;3.70;;
70532;SDS011;58088;51.186;17.130;2023-05-10T00:05:21;8.60;;;3.80;;
70532;SDS011;58088;51.186;17.130;2023-05-10T00:07:47;9.20;;;4.20;;
70532;SDS011;58088;51.186;17.130;2023-05-10T00:10:13;7.90;;;3.90;;
70532;SDS011;58088;51.186;17.130;2023-05-10T00:12:40;10.20;;;3.90;;
70532;SDS011;58088;51.186;17.130;2023-05-10T00:15:07;11.00;;;4.00;;
70532;SDS011;58088;51.186;17.130;2023-05-10T00:17:34;7.10;;;3.50;;
70532;SDS011;58088;51.186;17.130;2023-05-10T00:20:01;8.00;;;3.60;;
70532;SDS011;58088;51.186;17.130;2023-05-10T00:22:27;9.70;;;3.90;;
70532;SDS011;58088;51.186;17.130;2023-05-10T00:24:54;7.80;;;4.00;;
70532;SDS011;58088;51.186;17.130;2023-05-10T00:27:20;8.40;;;4.10;;
70532;SDS011;58088;51.186;17.130;2023-05-10T00:29:46;8.40;;;4.20;;
70532;SDS011;58088;51.186;17.130;2023-05-10T00:32:12;8.70;;;4.30;;
70532;SDS011;58088;51.186;17.130;2023-05-10T00:34:39;8.20;;;4.10;;
70532;SDS011;58088;51.186;17.130;2023-05-10T00:37:06;9.50;;;4.40;;
70532;SDS011;58088;51.186;17.130;2023-05-10T00:39:32;11.50;;;5.60;;
70532;SDS011;58088;51.186;17.130;2023-05-10T00:41:58;9.00;;;4.10;;
70532;SDS011;58088;51.186;17.130;2023-05-10T00:44:26;10.80;;;4.30;;
70532;SDS011;58088;51.186;17.130;2023-05-10T00:46:53;9.70;;;5.10;;
70532;SDS011;58088;51.186;17.130;2023-05-10T00:49:20;15.30;;;5.70;;
70532;SDS011;58088;51.186;17.130;2023-05-10T00:51:48;10.00;;;5.30;;
70532;SDS011;58088;51.186;17.130;2023-05-10T00:54:15;9.50;;;4.80;;
70532;SDS011;58088;51.186;17.130;2023-05-10T00:56:42;10.80;;;5.10;;
70532;SDS011;58088;51.186;17.130;2023-05-10T00:59:17;10.60;;;5.30;;
70532;SDS011;58088;51.186;17.130;2023-05-10T01:01:45;10.00;;;5.10;;
70532;SDS011;58088;51.186;17.130;2023-05-10T01:04:13;11.60;;;5.20;;
70532;SDS011;58088;51.186;17.130;2023-05-10T01:06:41;10.40;;;4.90;;
70532;SDS011;58088;51.186;17.130;2023-05-10T01:09:08;10.00;;;5.40;;
70532;SDS011;58088;51.186;17.130;2023-05-10T01:11:38;12.90;;;5.60;;
70532;SDS011;58088;51.186;17.130;2023-05-10T01:14:06;10.30;;;5.00;;
70532;SDS011;58088;51.186;17.130;2023-05-10T01:16:37;11.50;;;6.60;;
70532;SDS011;58088;51.186;17.130;2023-05-10T01:19:26;12.30;;;6.40;;
70532;SDS011;58088;51.186;17.130;2023-05-10T01:25:22;17.20;;;6.80;;
70532;SDS011;58088;51.186;17.130;2023-05-10T01:34:09;11.70;;;5.80;;
70532;SDS011;58088;51.186;17.130;2023-05-10T01:36:58;12.00;;;5.60;;
70532;SDS011;58088;51.186;17.130;2023-05-10T01:40:02;10.90;;;5.50;;
70532;SDS011;58088;51.186;17.130;2023-05-10T01:42:46;14.50;;;6.70;;
70532;SDS011;58088;51.186;17.130;2023-05-10T01:48:27;16.00;;;7.20;;
70532;SDS011;58088;51.186;17.130;2023-05-10T01:50:56;16.50;;;7.70;;
70532;SDS011;58088;51.186;17.130;2023-05-10T01:53:28;13.50;;;7.00;;
70532;SDS011;58088;51.186;17.130;2023-05-10T01:55:59;13.80;;;6.70;;
70532;SDS011;58088;51.186;17.130;2023-05-10T01:58:31;12.90;;;7.00;;
70532;SDS011;58088;51.186;17.130;2023-05-10T02:04:57;11.40;;;6.00;;
70532;SDS011;58088;51.186;17.130;2023-05-10T02:07:28;11.70;;;6.00;;
70532;SDS011;58088;51.186;17.130;2023-05-10T02:09:55;11.20;;;6.40;;
70532;SDS011;58088;51.186;17.130;2023-05-10T02:12:23;12.40;;;6.20;;
70532;SDS011;58088;51.186;17.130;2023-05-10T02:14:52;11.60;;;5.40;;
70532;SDS011;58088;51.186;17.130;2023-05-10T02:17:21;10.30;;;5.10;;
70532;SDS011;58088;51.186;17.130;2023-05-10T02:19:49;14.70;;;5.90;;
70532;SDS011;58088;51.186;17.130;2023-05-10T02:22:27;10.90;;;4.80;;
70532;SDS011;58088;51.186;17.130;2023-05-10T02:24:58;10.90;;;4.90;;
70532;SDS011;58088;51.186;17.130;2023-05-10T02:27:29;10.30;;;4.80;;
70532;SDS011;58088;51.186;17.130;2023-05-10T02:30:00;11.40;;;4.90;;
70532;SDS011;58088;51.186;17.130;2023-05-10T02:32:28;9.70;;;4.70;;
70532;SDS011;58088;51.186;17.130;2023-05-10T02:34:57;8.70;;;4.40;;
70532;SDS011;58088;51.186;17.130;2023-05-10T02:37:31;11.30;;;4.50;;
70532;SDS011;58088;51.186;17.130;2023-05-10T02:39:58;8.50;;;4.10;;
70532;SDS011;58088;51.186;17.130;2023-05-10T02:42:27;8.80;;;4.00;;
70532;SDS011;58088;51.186;17.130;2023-05-10T02:45:00;7.50;;;4.20;;
70532;SDS011;58088;51.186;17.130;2023-05-10T02:47:31;9.00;;;3.90;;
70532;SDS011;58088;51.186;17.130;2023-05-10T02:49:57;8.00;;;3.80;;
70532;SDS011;58088;51.186;17.130;2023-05-10T02:52:29;10.90;;;4.40;;
70532;SDS011;58088;51.186;17.130;2023-05-10T02:55:02;8.60;;;4.20;;
70532;SDS011;58088;51.186;17.130;2023-05-10T02:57:33;9.50;;;4.00;;
70532;SDS011;58088;51.186;17.130;2023-05-10T03:00:03;7.30;;;3.60;;
70532;SDS011;58088;51.186;17.130;2023-05-10T03:02:30;6.70;;;3.20;;
70532;SDS011;58088;51.186;17.130;2023-05-10T03:04:56;10.00;;;3.90;;
70532;SDS011;58088;51.186;17.130;2023-05-10T03:07:23;8.40;;;3.30;;
70532;SDS011;58088;51.186;17.130;2023-05-10T03:09:49;8.10;;;3.40;;
70532;SDS011;58088;51.186;17.130;2023-05-10T03:12:33;6.90;;;2.80;;
70532;SDS011;58088;51.186;17.130;2023-05-10T03:18:33;8.40;;;3.60;;
70532;SDS011;58088;51.186;17.130;2023-05-10T03:21:10;8.30;;;3.60;;
70532;SDS011;58088;51.186;17.130;2023-05-10T03:23:43;9.50;;;4.00;;
70532;SDS011;58088;51.186;17.130;2023-05-10T03:26:17;8.80;;;3.40;;
70532;SDS011;58088;51.186;17.130;2023-05-10T03:28:49;10.50;;;4.20;;
70532;SDS011;58088;51.186;17.130;2023-05-10T03:31:17;7.50;;;2.70;;
70532;SDS011;58088;51.186;17.130;2023-05-10T03:33:48;9.60;;;3.60;;
70532;SDS011;58088;51.186;17.130;2023-05-10T03:36:17;8.90;;;3.60;;
70532;SDS011;58088;51.186;17.130;2023-05-10T03:38:44;8.40;;;4.00;;
70532;SDS011;58088;51.186;17.130;2023-05-10T03:41:11;9.80;;;3.60;;
70532;SDS011;58088;51.186;17.130;2023-05-10T03:43:38;10.00;;;4.10;;
70532;SDS011;58088;51.186;17.130;2023-05-10T03:46:05;9.50;;;4.00;;
70532;SDS011;58088;51.186;17.130;2023-05-10T03:48:32;8.20;;;3.90;;
70532;SDS011;58088;51.186;17.130;2023-05-10T03:50:58;12.70;;;4.30;;
70532;SDS011;58088;51.186;17.130;2023-05-10T03:53:25;9.50;;;3.90;;
70532;SDS011;58088;51.186;17.130;2023-05-10T03:55:52;7.70;;;4.00;;
70532;SDS011;58088;51.186;17.130;2023-05-10T03:58:19;9.70;;;4.30;;
70532;SDS011;58088;51.186;17.130;2023-05-10T04:00:45;8.00;;;4.30;;
70532;SDS011;58088;51.186;17.130;2023-05-10T04:03:12;8.50;;;4.10;;
70532;SDS011;58088;51.186;17.130;2023-05-10T04:05:40;8.60;;;4.50;;
70532;SDS011;58088;51.186;17.130;2023-05-10T04:08:06;8.70;;;4.30;;
70532;SDS011;58088;51.186;17.130;2023-05-10T04:10:32;8.80;;;4.40;;
70532;SDS011;58088;51.186;17.130;2023-05-10T04:12:59;8.40;;;4.00;;
70532;SDS011;58088;51.186;17.130;2023-05-10T04:15:25;10.90;;;4.40;;
70532;SDS011;58088;51.186;17.130;2023-05-10T04:17:51;9.40;;;4.60;;
70532;SDS011;58088;51.186;17.130;2023-05-10T04:20:17;8.60;;;4.40;;
70532;SDS011;58088;51.186;17.130;2023-05-10T04:22:43;8.60;;;3.70;;
70532;SDS011;58088;51.186;17.130;2023-05-10T04:25:09;9.70;;;4.40;;
70532;SDS011;58088;51.186;17.130;2023-05-10T04:27:36;8.70;;;4.60;;
70532;SDS011;58088;51.186;17.130;2023-05-10T04:30:02;7.40;;;4.10;;
70532;SDS011;58088;51.186;17.130;2023-05-10T04:32:29;8.30;;;4.30;;
70532;SDS011;58088;51.186;17.130;2023-05-10T04:34:55;8.20;;;4.70;;
70532;SDS011;58088;51.186;17.130;2023-05-10T04:37:21;9.40;;;4.70;;
70532;SDS011;58088;51.186;17.130;2023-05-10T04:39:48;9.20;;;5.00;;
70532;SDS011;58088;51.186;17.130;2023-05-10T04:42:14;7.80;;;4.20;;
70532;SDS011;58088;51.186;17.130;2023-05-10T04:44:41;9.50;;;4.60;;
70532;SDS011;58088;51.186;17.130;2023-05-10T04:47:07;7.80;;;4.60;;
70532;SDS011;58088;51.186;17.130;2023-05-10T04:49:33;9.20;;;4.60;;
70532;SDS011;58088;51.186;17.130;2023-05-10T04:51:59;9.40;;;4.60;;
70532;SDS011;58088;51.186;17.130;2023-05-10T04:54:25;8.70;;;4.30;;
70532;SDS011;58088;51.186;17.130;2023-05-10T04:56:51;8.20;;;5.00;;
70532;SDS011;58088;51.186;17.130;2023-05-10T04:59:17;7.90;;;4.60;;
70532;SDS011;58088;51.186;17.130;2023-05-10T05:01:43;9.20;;;4.80;;
70532;SDS011;58088;51.186;17.130;2023-05-10T05:04:09;7.70;;;4.30;;
70532;SDS011;58088;51.186;17.130;2023-05-10T05:06:46;8.20;;;4.30;;
70532;SDS011;58088;51.186;17.130;2023-05-10T05:09:12;7.10;;;3.90;;
70532;SDS011;58088;51.186;17.130;2023-05-10T05:11:39;6.10;;;3.50;;
70532;SDS011;58088;51.186;17.130;2023-05-10T05:14:05;9.70;;;5.10;;
70532;SDS011;58088;51.186;17.130;2023-05-10T05:16:31;7.50;;;3.90;;
70532;SDS011;58088;51.186;17.130;2023-05-10T05:18:58;7.30;;;4.50;;
70532;SDS011;58088;51.186;17.130;2023-05-10T05:21:26;8.40;;;4.10;;
70532;SDS011;58088;51.186;17.130;2023-05-10T05:23:53;8.20;;;4.70;;
70532;SDS011;58088;51.186;17.130;2023-05-10T05:26:19;8.30;;;4.30;;
70532;SDS011;58088;51.186;17.130;2023-05-10T05:28:45;9.50;;;4.10;;
70532;SDS011;58088;51.186;17.130;2023-05-10T05:31:11;9.30;;;4.40;;
70532;SDS011;58088;51.186;17.130;2023-05-10T05:33:38;6.80;;;3.70;;
70532;SDS011;58088;51.186;17.130;2023-05-10T05:36:05;8.10;;;4.20;;
70532;SDS011;58088;51.186;17.130;2023-05-10T05:38:31;8.00;;;3.90;;
70532;SDS011;58088;51.186;17.130;2023-05-10T05:40:57;8.60;;;4.10;;
70532;SDS011;58088;51.186;17.130;2023-05-10T05:43:24;9.00;;;4.10;;
70532;SDS011;58088;51.186;17.130;2023-05-10T05:45:52;6.80;;;3.60;;
70532;SDS011;58088;51.186;17.130;2023-05-10T05:48:19;8.80;;;4.10;;
70532;SDS011;58088;51.186;17.130;2023-05-10T05:50:45;7.90;;;3.80;;
70532;SDS011;58088;51.186;17.130;2023-05-10T05:53:12;9.10;;;4.40;;
70532;SDS011;58088;51.186;17.130;2023-05-10T05:55:38;8.50;;;3.80;;
70532;SDS011;58088;51.186;17.130;2023-05-10T05:58:04;7.60;;;3.90;;
70532;SDS011;58088;51.186;17.130;2023-05-10T06:00:30;8.40;;;3.80;;
70532;SDS011;58088;51.186;17.130;2023-05-10T06:02:57;7.70;;;3.70;;
70532;SDS011;58088;51.186;17.130;2023-05-10T06:05:23;6.60;;;3.50;;
70532;SDS011;58088;51.186;17.130;2023-05-10T06:07:49;7.80;;;3.30;;
70532;SDS011;58088;51.186;17.130;2023-05-10T06:10:15;10.70;;;3.00;;
70532;SDS011;58088;51.186;17.130;2023-05-10T06:12:41;6.50;;;2.70;;
70532;SDS011;58088;51.186;17.130;2023-05-10T06:15:08;7.00;;;3.00;;
70532;SDS011;58088;51.186;17.130;2023-05-10T06:17:35;9.20;;;4.00;;
70532;SDS011;58088;51.186;17.130;2023-05-10T06:20:01;6.70;;;3.50;;
70532;SDS011;58088;51.186;17.130;2023-05-10T06:22:28;10.20;;;3.70;;
70532;SDS011;58088;51.186;17.130;2023-05-10T06:24:54;5.80;;;3.20;;
70532;SDS011;58088;51.186;17.130;2023-05-10T06:27:20;8.20;;;3.30;;
70532;SDS011;58088;51.186;17.130;2023-05-10T06:29:47;5.90;;;3.60;;
70532;SDS011;58088;51.186;17.130;2023-05-10T06:32:13;8.20;;;3.60;;
70532;SDS011;58088;51.186;17.130;2023-05-10T06:34:39;10.80;;;3.70;;
70532;SDS011;58088;51.186;17.130;2023-05-10T06:37:05;6.70;;;3.20;;
70532;SDS011;58088;51.186;17.130;2023-05-10T06:39:31;5.80;;;2.40;;
70532;SDS011;58088;51.186;17.130;2023-05-10T06:41:58;5.80;;;3.30;;
70532;SDS011;58088;51.186;17.130;2023-05-10T06:44:28;6.50;;;3.40;;
70532;SDS011;58088;51.186;17.130;2023-05-10T06:46:54;6.80;;;2.70;;
70532;SDS011;58088;51.186;17.130;2023-05-10T06:49:21;7.20;;;3.10;;
70532;SDS011;58088;51.186;17.130;2023-05-10T06:51:47;6.50;;;2.50;;
70532;SDS011;58088;51.186;17.130;2023-05-10T06:54:14;5.90;;;2.90;;
70532;SDS011;58088;51.186;17.130;2023-05-10T06:56:40;7.80;;;3.00;;
70532;SDS011;58088;51.186;17.130;2023-05-10T06:59:06;5.70;;;3.10;;
70532;SDS011;58088;51.186;17.130;2023-05-10T07:01:33;7.00;;;2.60;;
70532;SDS011;58088;51.186;17.130;2023-05-10T07:03:59;6.70;;;3.00;;
70532;SDS011;58088;51.186;17.130;2023-05-10T07:06:25;8.60;;;2.70;;
70532;SDS011;58088;51.186;17.130;2023-05-10T07:08:51;5.70;;;3.10;;
70532;SDS011;58088;51.186;17.130;2023-05-10T07:11:17;7.40;;;3.10;;
70532;SDS011;58088;51.186;17.130;2023-05-10T07:13:43;6.90;;;2.90;;
70532;SDS011;58088;51.186;17.130;2023-05-10T07:16:12;5.40;;;2.50;;
70532;SDS011;58088;51.186;17.130;2023-05-10T07:18:38;6.10;;;2.60;;
70532;SDS011;58088;51.186;17.130;2023-05-10T07:21:04;5.80;;;2.80;;
70532;SDS011;58088;51.186;17.130;2023-05-10T07:23:30;6.50;;;2.50;;
70532;SDS011;58088;51.186;17.130;2023-05-10T07:25:57;5.10;;;2.70;;
70532;SDS011;58088;51.186;17.130;2023-05-10T07:28:23;8.30;;;3.00;;
70532;SDS011;58088;51.186;17.130;2023-05-10T07:30:50;7.70;;;2.40;;
70532;SDS011;58088;51.186;17.130;2023-05-10T07:33:16;4.50;;;2.60;;
70532;SDS011;58088;51.186;17.130;2023-05-10T07:35:43;5.10;;;2.30;;
70532;SDS011;58088;51.186;17.130;2023-05-10T07:38:09;7.00;;;2.50;;
70532;SDS011;58088;51.186;17.130;2023-05-10T07:40:36;4.30;;;1.90;;
70532;SDS011;58088;51.186;17.130;2023-05-10T07:43:04;7.70;;;2.60;;
70532;SDS011;58088;51.186;17.130;2023-05-10T07:45:30;4.90;;;2.60;;
70532;SDS011;58088;51.186;17.130;2023-05-10T07:47:56;5.40;;;2.30;;
70532;SDS011;58088;51.186;17.130;2023-05-10T07:50:22;6.60;;;2.20;;
70532;SDS011;58088;51.186;17.130;2023-05-10T07:52:48;5.90;;;2.50;;
70532;SDS011;58088;51.186;17.130;2023-05-10T07:55:14;7.30;;;2.40;;
70532;SDS011;58088;51.186;17.130;2023-05-10T07:57:42;4.80;;;2.40;;
70532;SDS011;58088;51.186;17.130;2023-05-10T08:00:08;6.70;;;2.40;;
70532;SDS011;58088;51.186;17.130;2023-05-10T08:02:41;5.30;;;2.90;;
70532;SDS011;58088;51.186;17.130;2023-05-10T08:05:07;5.40;;;2.30;;
70532;SDS011;58088;51.186;17.130;2023-05-10T08:07:33;4.40;;;2.20;;
70532;SDS011;58088;51.186;17.130;2023-05-10T08:10:00;6.80;;;2.90;;
70532;SDS011;58088;51.186;17.130;2023-05-10T08:12:26;4.70;;;2.30;;
70532;SDS011;58088;51.186;17.130;2023-05-10T08:14:52;6.40;;;2.60;;
70532;SDS011;58088;51.186;17.130;2023-05-10T08:17:18;4.50;;;2.30;;
70532;SDS011;58088;51.186;17.130;2023-05-10T08:19:45;4.80;;;2.10;;
70532;SDS011;58088;51.186;17.130;2023-05-10T08:22:11;6.30;;;2.80;;
70532;SDS011;58088;51.186;17.130;2023-05-10T08:24:37;6.70;;;2.50;;
70532;SDS011;58088;51.186;17.130;2023-05-10T08:27:05;6.20;;;2.70;;
70532;SDS011;58088;51.186;17.130;2023-05-10T08:29:31;6.90;;;2.70;;
70532;SDS011;58088;51.186;17.130;2023-05-10T08:31:57;4.60;;;2.40;;
70532;SDS011;58088;51.186;17.130;2023-05-10T08:34:24;5.50;;;2.70;;
70532;SDS011;58088;51.186;17.130;2023-05-10T08:36:50;6.50;;;2.80;;
70532;SDS011;58088;51.186;17.130;2023-05-10T08:39:17;5.50;;;2.50;;
70532;SDS011;58088;51.186;17.130;2023-05-10T08:41:44;5.30;;;2.40;;
70532;SDS011;58088;51.186;17.130;2023-05-10T08:44:13;6.20;;;2.80;;
70532;SDS011;58088;51.186;17.130;2023-05-10T08:46:42;6.70;;;2.90;;
70532;SDS011;58088;51.186;17.130;2023-05-10T08:49:15;4.70;;;2.20;;
70532;SDS011;58088;51.186;17.130;2023-05-10T08:51:52;4.30;;;2.00;;
70532;SDS011;58088;51.186;17.130;2023-05-10T08:54:22;5.10;;;2.50;;
70532;SDS011;58088;51.186;17.130;2023-05-10T08:56:49;4.70;;;2.30;;
70532;SDS011;58088;51.186;17.130;2023-05-10T08:59:15;6.50;;;2.50;;
70532;SDS011;58088;51.186;17.130;2023-05-10T09:01:43;4.50;;;2.40;;
70532;SDS011;58088;51.186;17.130;2023-05-10T09:04:12;5.40;;;1.80;;
70532;SDS011;58088;51.186;17.130;2023-05-10T09:06:39;5.40;;;2.10;;
70532;SDS011;58088;51.186;17.130;2023-05-10T09:09:06;3.80;;;1.90;;
70532;SDS011;58088;51.186;17.130;2023-05-10T09:11:32;5.60;;;2.20;;
70532;SDS011;58088;51.186;17.130;2023-05-10T09:13:58;5.70;;;2.00;;
70532;SDS011;58088;51.186;17.130;2023-05-10T09:16:24;4.30;;;1.80;;
70532;SDS011;58088;51.186;17.130;2023-05-10T09:18:50;6.20;;;2.20;;
70532;SDS011;58088;51.186;17.130;2023-05-10T09:21:18;5.50;;;1.90;;
70532;SDS011;58088;51.186;17.130;2023-05-10T09:23:46;4.50;;;2.30;;
70532;SDS011;58088;51.186;17.130;2023-05-10T09:26:15;5.30;;;1.90;;
70532;SDS011;58088;51.186;17.130;2023-05-10T09:28:59;4.90;;;1.90;;
70532;SDS011;58088;51.186;17.130;2023-05-10T09:31:45;5.40;;;2.30;;
70532;SDS011;58088;51.186;17.130;2023-05-10T09:34:19;4.40;;;1.70;;
70532;SDS011;58088;51.186;17.130;2023-05-10T09:37:04;4.20;;;1.80;;
70532;SDS011;58088;51.186;17.130;2023-05-10T09:39:35;3.10;;;1.80;;
70532;SDS011;58088;51.186;17.130;2023-05-10T09:42:07;4.40;;;1.90;;
70532;SDS011;58088;51.186;17.130;2023-05-10T09:44:35;5.30;;;1.80;;
70532;SDS011;58088;51.186;17.130;2023-05-10T09:47:02;4.40;;;2.10;;
70532;SDS011;58088;51.186;17.130;2023-05-10T09:49:29;4.80;;;2.10;;
70532;SDS011;58088;51.186;17.130;2023-05-10T09:52:08;3.40;;;1.70;;
70532;SDS011;58088;51.186;17.130;2023-05-10T09:54:34;4.20;;;1.90;;
70532;SDS011;58088;51.186;17.130;2023-05-10T09:57:00;4.80;;;2.10;;
70532;SDS011;58088;51.186;17.130;2023-05-10T09:59:28;4.30;;;2.30;;
70532;SDS011;58088;51.186;17.130;2023-05-10T10:01:56;4.10;;;2.00;;
70532;SDS011;58088;51.186;17.130;2023-05-10T10:04:24;7.50;;;2.40;;
70532;SDS011;58088;51.186;17.130;2023-05-10T10:07:03;4.60;;;1.90;;
70532;SDS011;58088;51.186;17.130;2023-05-10T10:09:31;4.60;;;2.20;;
70532;SDS011;58088;51.186;17.130;2023-05-10T10:12:02;4.10;;;2.00;;
70532;SDS011;58088;51.186;17.130;2023-05-10T10:14:29;5.10;;;2.30;;
70532;SDS011;58088;51.186;17.130;2023-05-10T10:16:56;5.80;;;2.00;;
70532;SDS011;58088;51.186;17.130;2023-05-10T10:19:22;5.40;;;2.00;;
70532;SDS011;58088;51.186;17.130;2023-05-10T10:21:49;4.60;;;1.90;;
70532;SDS011;58088;51.186;17.130;2023-05-10T10:24:16;4.50;;;2.30;;
70532;SDS011;58088;51.186;17.130;2023-05-10T10:26:42;4.10;;;1.90;;
70532;SDS011;58088;51.186;17.130;2023-05-10T10:29:19;5.30;;;2.40;;
70532;SDS011;58088;51.186;17.130;2023-05-10T10:32:02;5.40;;;2.00;;
70532;SDS011;58088;51.186;17.130;2023-05-10T10:34:35;5.00;;;2.40;;
70532;SDS011;58088;51.186;17.130;2023-05-10T10:37:05;5.50;;;1.90;;
70532;SDS011;58088;51.186;17.130;2023-05-10T10:39:32;3.40;;;1.80;;
70532;SDS011;58088;51.186;17.130;2023-05-10T10:41:59;5.20;;;1.80;;
70532;SDS011;58088;51.186;17.130;2023-05-10T10:52:27;4.70;;;2.20;;
70532;SDS011;58088;51.186;17.130;2023-05-10T11:05:33;4.90;;;2.10;;
70532;SDS011;58088;51.186;17.130;2023-05-10T11:08:27;7.60;;;2.10;;
70532;SDS011;58088;51.186;17.130;2023-05-10T11:13:32;4.60;;;2.30;;
70532;SDS011;58088;51.186;17.130;2023-05-10T11:19:01;4.10;;;1.80;;
70532;SDS011;58088;51.186;17.130;2023-05-10T11:21:34;3.80;;;1.80;;
70532;SDS011;58088;51.186;17.130;2023-05-10T11:24:22;4.90;;;2.10;;
70532;SDS011;58088;51.186;17.130;2023-05-10T11:26:53;6.20;;;2.00;;
70532;SDS011;58088;51.186;17.130;2023-05-10T11:29:20;4.10;;;1.80;;
70532;SDS011;58088;51.186;17.130;2023-05-10T11:31:47;4.00;;;2.00;;
70532;SDS011;58088;51.186;17.130;2023-05-10T11:34:29;3.80;;;1.70;;
70532;SDS011;58088;51.186;17.130;2023-05-10T11:36:59;6.90;;;2.10;;
70532;SDS011;58088;51.186;17.130;2023-05-10T11:39:28;5.90;;;2.60;;
70532;SDS011;58088;51.186;17.130;2023-05-10T11:41:56;4.10;;;1.90;;
70532;SDS011;58088;51.186;17.130;2023-05-10T11:44:29;4.80;;;2.10;;
70532;SDS011;58088;51.186;17.130;2023-05-10T11:47:00;4.10;;;1.80;;
70532;SDS011;58088;51.186;17.130;2023-05-10T11:49:27;4.40;;;1.80;;
70532;SDS011;58088;51.186;17.130;2023-05-10T11:52:06;3.90;;;1.60;;
70532;SDS011;58088;51.186;17.130;2023-05-10T11:54:33;5.60;;;1.70;;
70532;SDS011;58088;51.186;17.130;2023-05-10T11:57:00;3.50;;;1.70;;
70532;SDS011;58088;51.186;17.130;2023-05-10T11:59:30;4.80;;;2.20;;
70532;SDS011;58088;51.186;17.130;2023-05-10T12:01:56;3.00;;;1.80;;
70532;SDS011;58088;51.186;17.130;2023-05-10T12:04:23;3.60;;;2.00;;
70532;SDS011;58088;51.186;17.130;2023-05-10T12:06:51;5.00;;;2.20;;
70532;SDS011;58088;51.186;17.130;2023-05-10T12:09:17;4.20;;;1.70;;
70532;SDS011;58088;51.186;17.130;2023-05-10T12:11:43;7.20;;;2.00;;
70532;SDS011;58088;51.186;17.130;2023-05-10T12:14:09;4.30;;;2.10;;
70532;SDS011;58088;51.186;17.130;2023-05-10T12:16:36;4.10;;;1.70;;
70532;SDS011;58088;51.186;17.130;2023-05-10T12:19:02;4.20;;;2.20;;
70532;SDS011;58088;51.186;17.130;2023-05-10T12:21:29;4.90;;;2.10;;
70532;SDS011;58088;51.186;17.130;2023-05-10T12:24:03;2.90;;;1.40;;
70532;SDS011;58088;51.186;17.130;2023-05-10T12:26:30;4.50;;;1.80;;
70532;SDS011;58088;51.186;17.130;2023-05-10T12:29:17;4.40;;;1.40;;
70532;SDS011;58088;51.186;17.130;2023-05-10T12:31:58;4.50;;;1.90;;
70532;SDS011;58088;51.186;17.130;2023-05-10T12:34:34;6.10;;;1.70;;
70532;SDS011;58088;51.186;17.130;2023-05-10T12:37:02;3.50;;;1.70;;
70532;SDS011;58088;51.186;17.130;2023-05-10T12:39:43;3.40;;;1.50;;
70532;SDS011;58088;51.186;17.130;2023-05-10T12:42:10;2.80;;;1.50;;
70532;SDS011;58088;51.186;17.130;2023-05-10T12:44:36;3.40;;;1.60;;
70532;SDS011;58088;51.186;17.130;2023-05-10T12:47:03;6.70;;;2.20;;
70532;SDS011;58088;51.186;17.130;2023-05-10T12:49:29;3.20;;;1.30;;
70532;SDS011;58088;51.186;17.130;2023-05-10T12:51:56;4.50;;;1.60;;
70532;SDS011;58088;51.186;17.130;2023-05-10T12:54:22;6.90;;;1.90;;
70532;SDS011;58088;51.186;17.130;2023-05-10T12:56:48;3.80;;;1.80;;
70532;SDS011;58088;51.186;17.130;2023-05-10T12:59:14;5.00;;;1.70;;
70532;SDS011;58088;51.186;17.130;2023-05-10T13:01:41;4.10;;;1.80;;
70532;SDS011;58088;51.186;17.130;2023-05-10T13:04:07;4.20;;;1.80;;
70532;SDS011;58088;51.186;17.130;2023-05-10T13:06:33;3.10;;;1.60;;
70532;SDS011;58088;51.186;17.130;2023-05-10T13:08:59;8.00;;;2.10;;
70532;SDS011;58088;51.186;17.130;2023-05-10T13:11:25;3.80;;;1.70;;
70532;SDS011;58088;51.186;17.130;2023-05-10T13:13:51;3.40;;;2.00;;
70532;SDS011;58088;51.186;17.130;2023-05-10T13:16:18;3.20;;;1.90;;
70532;SDS011;58088;51.186;17.130;2023-05-10T13:18:44;5.20;;;1.40;;
70532;SDS011;58088;51.186;17.130;2023-05-10T13:21:10;2.50;;;1.30;;
70532;SDS011;58088;51.186;17.130;2023-05-10T13:23:36;3.50;;;1.80;;
70532;SDS011;58088;51.186;17.130;2023-05-10T13:26:02;2.80;;;1.60;;
70532;SDS011;58088;51.186;17.130;2023-05-10T13:28:29;5.70;;;1.90;;
70532;SDS011;58088;51.186;17.130;2023-05-10T13:30:55;2.10;;;1.20;;
70532;SDS011;58088;51.186;17.130;2023-05-10T13:33:21;3.20;;;1.30;;
70532;SDS011;58088;51.186;17.130;2023-05-10T13:35:47;5.10;;;1.60;;
70532;SDS011;58088;51.186;17.130;2023-05-10T13:38:14;3.70;;;1.60;;
70532;SDS011;58088;51.186;17.130;2023-05-10T13:40:40;6.30;;;1.50;;
70532;SDS011;58088;51.186;17.130;2023-05-10T13:43:06;5.20;;;1.90;;
70532;SDS011;58088;51.186;17.130;2023-05-10T13:45:33;4.30;;;1.70;;
70532;SDS011;58088;51.186;17.130;2023-05-10T13:47:59;3.20;;;1.50;;
70532;SDS011;58088;51.186;17.130;2023-05-10T13:50:25;4.20;;;1.50;;
70532;SDS011;58088;51.186;17.130;2023-05-10T13:52:52;3.90;;;1.50;;
70532;SDS011;58088;51.186;17.130;2023-05-10T13:55:19;5.10;;;1.80;;
70532;SDS011;58088;51.186;17.130;2023-05-10T13:57:45;2.90;;;1.50;;
70532;SDS011;58088;51.186;17.130;2023-05-10T14:00:12;4.70;;;1.70;;
70532;SDS011;58088;51.186;17.130;2023-05-10T14:02:38;2.80;;;1.10;;
70532;SDS011;58088;51.186;17.130;2023-05-10T14:05:05;3.60;;;1.30;;
70532;SDS011;58088;51.186;17.130;2023-05-10T14:07:31;4.10;;;1.50;;
70532;SDS011;58088;51.186;17.130;2023-05-10T14:09:57;4.40;;;1.90;;
70532;SDS011;58088;51.186;17.130;2023-05-10T14:12:24;3.10;;;1.60;;
70532;SDS011;58088;51.186;17.130;2023-05-10T14:14:50;5.50;;;1.90;;
70532;SDS011;58088;51.186;17.130;2023-05-10T14:17:17;3.00;;;1.50;;
70532;SDS011;58088;51.186;17.130;2023-05-10T14:19:44;5.00;;;1.70;;
70532;SDS011;58088;51.186;17.130;2023-05-10T14:22:10;2.90;;;1.40;;
70532;SDS011;58088;51.186;17.130;2023-05-10T14:24:37;4.20;;;1.60;;
70532;SDS011;58088;51.186;17.130;2023-05-10T14:27:03;3.50;;;1.50;;
70532;SDS011;58088;51.186;17.130;2023-05-10T14:29:30;4.80;;;1.50;;
70532;SDS011;58088;51.186;17.130;2023-05-10T14:31:56;2.90;;;1.20;;
70532;SDS011;58088;51.186;17.130;2023-05-10T14:34:22;4.60;;;1.80;;
70532;SDS011;58088;51.186;17.130;2023-05-10T14:36:48;4.60;;;1.60;;
70532;SDS011;58088;51.186;17.130;2023-05-10T14:39:15;3.20;;;1.20;;
70532;SDS011;58088;51.186;17.130;2023-05-10T14:41:42;2.60;;;1.00;;
70532;SDS011;58088;51.186;17.130;2023-05-10T14:44:08;2.20;;;1.30;;
70532;SDS011;58088;51.186;17.130;2023-05-10T14:46:35;3.50;;;1.30;;
70532;SDS011;58088;51.186;17.130;2023-05-10T14:49:02;4.20;;;1.60;;
70532;SDS011;58088;51.186;17.130;2023-05-10T14:51:28;3.40;;;1.60;;
70532;SDS011;58088;51.186;17.130;2023-05-10T14:53:54;4.60;;;1.50;;
70532;SDS011;58088;51.186;17.130;2023-05-10T14:56:20;3.50;;;1.60;;
70532;SDS011;58088;51.186;17.130;2023-05-10T14:58:47;3.20;;;1.70;;
70532;SDS011;58088;51.186;17.130;2023-05-10T15:01:13;5.00;;;1.70;;
70532;SDS011;58088;51.186;17.130;2023-05-10T15:03:39;2.80;;;1.30;;
70532;SDS011;58088;51.186;17.130;2023-05-10T15:06:07;2.60;;;1.30;;
70532;SDS011;58088;51.186;17.130;2023-05-10T15:08:34;2.70;;;1.50;;
70532;SDS011;58088;51.186;17.130;2023-05-10T15:11:00;3.10;;;1.60;;
70532;SDS011;58088;51.186;17.130;2023-05-10T15:13:27;3.80;;;1.60;;
70532;SDS011;58088;51.186;17.130;2023-05-10T15:15:53;4.80;;;1.60;;
70532;SDS011;58088;51.186;17.130;2023-05-10T15:18:19;3.00;;;1.50;;
70532;SDS011;58088;51.186;17.130;2023-05-10T15:20:45;4.60;;;1.40;;
70532;SDS011;58088;51.186;17.130;2023-05-10T15:23:11;3.40;;;1.50;;